createdAt,value
2023-02-13T00:03:11.749Z,17.71
2023-02-13T00:08:26.663Z,17.70
2023-02-13T00:13:41.727Z,17.67
2023-02-13T00:18:56.683Z,17.69
2023-02-13T00:24:11.720Z,17.69
2023-02-13T00:29:26.711Z,17.68
2023-02-13T00:34:41.660Z,17.68
2023-02-13T00:39:57.073Z,17.69
2023-02-13T00:45:13.044Z,17.68
2023-02-13T00:50:28.705Z,17.68
2023-02-13T00:55:45.070Z,17.68
2023-02-13T01:01:00.735Z,17.65
2023-02-13T01:06:16.674Z,17.68
2023-02-13T01:11:32.122Z,17.68
2023-02-13T01:16:48.002Z,17.68
2023-02-13T01:22:04.057Z,17.68
2023-02-13T01:27:19.751Z,17.69
2023-02-13T01:32:34.670Z,17.69
2023-02-13T01:37:49.699Z,17.69
2023-02-13T01:43:05.706Z,17.68
2023-02-13T01:48:20.964Z,17.68
2023-02-13T01:53:36.734Z,17.68
2023-02-13T01:58:52.709Z,17.69
2023-02-13T02:04:07.717Z,17.69
2023-02-13T02:09:22.820Z,17.69
2023-02-13T02:14:37.710Z,17.68
2023-02-13T02:19:52.733Z,17.67
2023-02-13T02:25:09.661Z,17.65
2023-02-13T02:30:24.739Z,17.64
2023-02-13T02:35:40.004Z,17.65
2023-02-13T02:40:55.935Z,17.65
2023-02-13T02:46:14.539Z,17.65
2023-02-13T02:51:29.771Z,17.64
2023-02-13T02:56:44.732Z,17.63
2023-02-13T03:02:00.046Z,17.64
2023-02-13T03:07:15.734Z,17.65
2023-02-13T03:12:30.752Z,17.65
2023-02-13T03:17:45.719Z,17.66
2023-02-13T03:23:00.782Z,17.67
2023-02-13T03:28:15.835Z,17.68
2023-02-13T03:33:30.759Z,17.68
2023-02-13T03:38:45.768Z,17.68
2023-02-13T03:44:01.047Z,17.68
2023-02-13T03:49:16.719Z,17.67
2023-02-13T03:54:31.676Z,17.68
2023-02-13T03:59:46.729Z,17.68
2023-02-13T04:05:01.727Z,17.68
2023-02-13T04:10:17.487Z,17.67
2023-02-13T04:15:33.045Z,17.67
2023-02-13T04:20:48.690Z,17.66
2023-02-13T04:26:03.772Z,17.72
2023-02-13T04:31:18.732Z,17.78
2023-02-13T04:36:33.681Z,17.86
2023-02-13T04:41:48.745Z,17.85
2023-02-13T04:47:04.700Z,17.83
2023-02-13T04:52:19.969Z,17.80
2023-02-13T04:57:35.741Z,17.76
2023-02-13T05:02:51.013Z,17.73
2023-02-13T05:08:06.668Z,17.70
2023-02-13T05:13:21.708Z,17.68
2023-02-13T05:18:36.674Z,17.65
2023-02-13T05:23:51.739Z,17.62
2023-02-13T05:29:06.695Z,17.60
2023-02-13T05:34:21.680Z,17.58
2023-02-13T05:39:36.741Z,17.55
2023-02-13T05:44:51.810Z,17.54
2023-02-13T05:50:06.775Z,17.52
2023-02-13T05:55:22.079Z,17.48
2023-02-13T06:00:37.786Z,17.46
2023-02-13T06:05:52.726Z,17.45
2023-02-13T06:11:07.766Z,17.44
2023-02-13T06:16:22.555Z,17.42
2023-02-13T06:21:37.754Z,17.41
2023-02-13T06:26:52.718Z,17.38
2023-02-13T06:32:07.727Z,17.38
2023-02-13T06:37:22.478Z,17.36
2023-02-13T06:42:37.757Z,17.35
2023-02-13T06:47:52.693Z,17.35
2023-02-13T06:53:07.815Z,17.33
2023-02-13T06:58:23.012Z,17.32
2023-02-13T07:03:38.712Z,17.31
2023-02-13T07:08:54.049Z,17.29
2023-02-13T07:14:09.785Z,17.30
2023-02-13T07:19:24.506Z,17.27
2023-02-13T07:24:39.690Z,17.27
2023-02-13T07:29:54.803Z,17.26
2023-02-13T07:35:09.984Z,17.25
2023-02-13T07:40:25.738Z,17.24
2023-02-13T07:45:41.056Z,17.23
2023-02-13T07:50:56.969Z,17.22
2023-02-13T07:56:12.763Z,17.21
2023-02-13T08:01:27.863Z,17.20
2023-02-13T08:06:42.874Z,17.20
2023-02-13T08:11:57.754Z,17.20
2023-02-13T08:17:12.771Z,17.19
2023-02-13T08:22:27.705Z,17.18
2023-02-13T08:27:43.082Z,17.16
2023-02-13T08:32:58.783Z,17.16
2023-02-13T08:38:13.768Z,17.15
2023-02-13T08:43:28.718Z,17.14
2023-02-13T08:48:43.763Z,17.14
2023-02-13T08:53:58.703Z,17.13
2023-02-13T08:59:13.776Z,17.13
2023-02-13T09:04:28.710Z,17.12
2023-02-13T09:09:44.034Z,17.10
2023-02-13T09:14:59.755Z,17.11
2023-02-13T09:20:14.755Z,17.10
2023-02-13T09:25:29.523Z,17.10
2023-02-13T09:30:45.188Z,17.09
2023-02-13T09:36:01.094Z,17.09
2023-02-13T09:41:17.428Z,17.10
2023-02-13T09:46:32.833Z,17.09
2023-02-13T09:51:47.778Z,17.04
2023-02-13T09:57:02.796Z,17.08
2023-02-13T10:02:17.759Z,17.08
2023-02-13T10:07:32.763Z,17.07
2023-02-13T10:12:47.826Z,17.08
2023-02-13T10:18:02.774Z,17.08
2023-02-13T10:23:17.722Z,17.09
2023-02-13T10:28:32.814Z,17.08
2023-02-13T10:33:47.763Z,17.09
2023-02-13T10:39:02.781Z,17.09
2023-02-13T10:44:18.042Z,17.10
2023-02-13T10:49:33.729Z,17.10
2023-02-13T10:54:49.129Z,17.10
2023-02-13T11:00:04.767Z,17.10
2023-02-13T11:05:19.480Z,17.11
2023-02-13T11:10:34.794Z,17.12
2023-02-13T11:15:50.079Z,17.11
2023-02-13T11:21:05.724Z,17.12
2023-02-13T11:26:21.063Z,17.12
2023-02-13T11:31:36.882Z,17.13
2023-02-13T11:36:52.775Z,17.14
2023-02-13T11:42:07.867Z,17.15
2023-02-13T11:47:22.818Z,17.14
2023-02-13T11:52:37.545Z,17.15
2023-02-13T11:57:53.107Z,17.16
2023-02-13T12:03:08.845Z,17.15
2023-02-13T12:08:23.753Z,17.15
2023-02-13T12:13:38.784Z,17.15
2023-02-13T12:18:53.836Z,17.17
2023-02-13T12:24:08.754Z,17.17
2023-02-13T12:29:23.808Z,17.18
2023-02-13T12:34:38.766Z,17.18
2023-02-13T12:39:53.810Z,17.19
2023-02-13T12:45:09.095Z,17.20
2023-02-13T12:50:25.109Z,17.21
2023-02-13T12:55:40.765Z,17.21
2023-02-13T13:00:55.927Z,17.21
2023-02-13T13:06:12.517Z,17.22
2023-02-13T13:11:27.741Z,17.22
2023-02-13T13:16:42.816Z,17.23
2023-02-13T13:21:59.027Z,17.24
2023-02-13T13:27:14.525Z,17.24
2023-02-13T13:32:29.730Z,17.25
2023-02-13T13:37:44.770Z,17.26
2023-02-13T13:42:59.849Z,17.27
2023-02-13T13:48:15.080Z,17.28
2023-02-13T13:53:30.490Z,17.28
2023-02-13T13:58:45.562Z,17.27
2023-02-13T14:04:00.783Z,17.28
2023-02-13T14:09:17.202Z,17.29
2023-02-13T14:14:32.809Z,17.30
2023-02-13T14:19:47.762Z,17.30
2023-02-13T14:25:03.090Z,17.32
2023-02-13T14:30:18.870Z,17.35
2023-02-13T14:35:33.787Z,17.36
2023-02-13T14:40:48.722Z,17.36
2023-02-13T14:46:03.777Z,17.37
2023-02-13T14:51:18.798Z,17.35
2023-02-13T14:56:33.747Z,17.37
2023-02-13T15:01:49.754Z,17.38
2023-02-13T15:07:05.506Z,17.37
2023-02-13T15:12:20.756Z,17.38
2023-02-13T15:17:36.239Z,17.38
2023-02-13T15:22:51.745Z,17.39
2023-02-13T15:28:06.762Z,17.39
2023-02-13T15:33:21.777Z,17.41
2023-02-13T15:38:36.861Z,17.41
2023-02-13T15:43:51.769Z,17.42
2023-02-13T15:49:07.111Z,17.43
2023-02-13T15:54:22.594Z,17.43
2023-02-13T15:59:37.713Z,17.43
2023-02-13T16:04:53.044Z,17.45
2023-02-13T16:10:08.776Z,17.44
2023-02-13T16:15:23.777Z,17.44
2023-02-13T16:20:38.832Z,17.45
2023-02-13T16:25:54.131Z,17.45
2023-02-13T16:31:10.240Z,17.45
2023-02-13T16:36:25.534Z,17.46
2023-02-13T16:41:40.770Z,17.45
2023-02-13T16:46:55.815Z,17.45
2023-02-13T16:52:10.799Z,17.45
2023-02-13T16:57:25.887Z,17.44
2023-02-13T17:02:40.840Z,17.43
2023-02-13T17:07:55.785Z,17.43
2023-02-13T17:13:10.789Z,17.40
2023-02-13T17:18:26.129Z,17.42
2023-02-13T17:23:41.818Z,17.42
2023-02-13T17:28:56.739Z,17.40
2023-02-13T17:34:11.794Z,17.41
2023-02-13T17:39:26.754Z,17.41
2023-02-13T17:44:42.091Z,17.42
2023-02-13T17:50:08.496Z,17.42
2023-02-13T17:55:24.859Z,17.43
2023-02-13T18:00:39.534Z,17.44
2023-02-13T18:05:55.748Z,17.43
2023-02-13T18:11:10.802Z,17.44
2023-02-13T18:16:25.821Z,17.44
2023-02-13T18:21:40.508Z,17.45
2023-02-13T18:26:56.151Z,17.45
2023-02-13T18:32:12.119Z,17.44
2023-02-13T18:37:27.836Z,17.44
2023-02-13T18:42:43.108Z,17.44
2023-02-13T18:47:58.803Z,17.45
2023-02-13T18:53:13.768Z,17.45
2023-02-13T18:58:28.732Z,17.45
2023-02-13T19:03:43.591Z,17.44
2023-02-13T19:08:58.781Z,17.46
2023-02-13T19:14:13.788Z,17.45
2023-02-13T19:19:28.775Z,17.45
2023-02-13T19:24:43.763Z,17.44
2023-02-13T19:29:58.807Z,17.43
2023-02-13T19:35:13.806Z,17.44
2023-02-13T19:40:28.752Z,17.43
2023-02-13T19:45:44.076Z,17.42
2023-02-13T19:51:00.380Z,17.41
2023-02-13T19:56:15.553Z,17.41
2023-02-13T20:01:30.571Z,17.39
2023-02-13T20:06:46.191Z,17.38
2023-02-13T20:12:02.144Z,17.38
2023-02-13T20:17:17.825Z,17.38
2023-02-13T20:22:32.802Z,17.37
2023-02-13T20:27:48.146Z,17.37
2023-02-13T20:33:03.771Z,17.47
2023-02-13T20:38:18.880Z,17.61
2023-02-13T20:43:33.587Z,17.68
2023-02-13T20:48:48.798Z,17.73
2023-02-13T20:54:04.089Z,17.79
2023-02-13T20:59:19.592Z,17.84
2023-02-13T21:04:35.239Z,17.88
2023-02-13T21:09:50.761Z,17.91
2023-02-13T21:15:05.822Z,17.94
2023-02-13T21:20:20.810Z,17.97
2023-02-13T21:25:35.807Z,17.99
2023-02-13T21:30:51.147Z,18.03
2023-02-13T21:36:07.237Z,18.06
2023-02-13T21:41:23.113Z,18.09
2023-02-13T21:46:38.841Z,18.10
2023-02-13T21:52:32.097Z,18.11
2023-02-13T21:57:47.777Z,18.13
2023-02-13T22:03:03.231Z,18.14
2023-02-13T22:08:19.159Z,18.15
2023-02-13T22:13:35.884Z,18.18
2023-02-13T22:18:50.772Z,18.18
2023-02-13T22:24:05.652Z,18.20
2023-02-13T22:29:20.810Z,18.21
2023-02-13T22:34:35.810Z,18.21
2023-02-13T22:39:50.910Z,18.22
2023-02-13T22:45:05.848Z,18.22
2023-02-13T22:50:21.067Z,18.23
2023-02-13T22:55:36.828Z,18.19
2023-02-13T23:00:51.762Z,18.23
2023-02-13T23:06:06.808Z,18.24
2023-02-13T23:11:22.169Z,18.22
2023-02-13T23:16:37.789Z,18.23
2023-02-13T23:21:52.765Z,18.22
2023-02-13T23:27:07.853Z,18.23
2023-02-13T23:32:23.113Z,18.21
2023-02-13T23:37:38.764Z,18.21
2023-02-13T23:42:53.851Z,18.18
2023-02-13T23:48:08.739Z,18.21
2023-02-13T23:53:23.860Z,18.20
2023-02-13T23:58:39.783Z,18.21
